createdAt,value
2018-05-18T19:00:02.157Z,5.50
2018-05-18T19:02:30.892Z,6.37
2018-05-18T19:05:00.081Z,6.60
2018-05-18T19:07:29.143Z,6.87
2018-05-18T19:09:58.985Z,6.70
2018-05-18T19:12:28.039Z,6.63
2018-05-18T19:14:57.877Z,6.77
2018-05-18T19:17:26.959Z,9.33
2018-05-18T19:19:56.863Z,6.90
2018-05-18T19:22:25.953Z,6.90
2018-05-18T19:24:55.023Z,7.47
2018-05-18T19:27:24.158Z,6.97
2018-05-18T19:29:54.132Z,11.43
2018-05-18T19:32:23.144Z,7.97
2018-05-18T19:34:52.265Z,7.73
2018-05-18T19:37:22.095Z,6.70
2018-05-18T19:39:51.234Z,7.20
2018-05-18T19:42:21.266Z,7.00
2018-05-18T19:44:50.506Z,7.20
2018-05-18T19:47:19.618Z,8.00
2018-05-18T19:49:48.957Z,7.23
2018-05-18T19:52:19.061Z,7.20
2018-05-18T19:54:48.384Z,7.77
2018-05-18T19:57:18.301Z,7.13
2018-05-18T19:59:47.461Z,6.57
2018-05-18T20:02:16.548Z,7.00
2018-05-18T20:04:45.689Z,7.23
2018-05-18T20:07:14.733Z,7.67
2018-05-18T20:09:43.802Z,7.17
2018-05-18T20:12:12.552Z,7.63
2018-05-18T20:14:41.625Z,7.10
2018-05-18T20:17:10.718Z,7.77
2018-05-18T20:19:39.814Z,7.17
2018-05-18T20:22:09.074Z,7.67
2018-05-18T20:24:38.137Z,8.40
2018-05-18T20:27:08.010Z,8.37
2018-05-18T20:29:37.504Z,7.70
2018-05-18T20:32:06.627Z,7.13
2018-05-18T20:34:35.680Z,7.90
2018-05-18T20:37:04.745Z,7.87
2018-05-18T20:39:34.601Z,8.00
2018-05-18T20:42:03.661Z,7.33
2018-05-18T20:44:33.538Z,7.60
2018-05-18T20:47:02.634Z,8.23
2018-05-18T20:49:31.882Z,7.30
2018-05-18T20:52:01.106Z,7.10
2018-05-18T20:54:30.211Z,8.00
2018-05-18T20:56:59.329Z,7.33
2018-05-18T20:59:28.574Z,8.07
2018-05-18T21:01:57.663Z,7.30
2018-05-18T21:04:26.550Z,7.90
2018-05-18T21:06:55.615Z,7.33
2018-05-18T21:09:25.137Z,7.70
2018-05-18T21:11:54.224Z,7.33
2018-05-18T21:14:24.091Z,8.43
2018-05-18T21:16:53.179Z,7.77
2018-05-18T21:19:22.227Z,7.60
2018-05-18T21:21:52.053Z,7.30
2018-05-18T21:24:21.136Z,7.80
2018-05-18T21:26:50.962Z,7.23
2018-05-18T21:29:20.040Z,9.07
2018-05-18T21:31:49.887Z,23.37
2018-05-18T21:34:18.953Z,10.20
2018-05-18T21:36:47.984Z,8.37
2018-05-18T21:39:17.091Z,8.37
2018-05-18T21:41:46.112Z,7.50
2018-05-18T21:44:15.154Z,8.47
2018-05-18T21:46:44.206Z,8.60
2018-05-18T21:49:14.046Z,8.23
2018-05-18T21:51:43.378Z,9.47
2018-05-18T21:54:13.245Z,8.87
2018-05-18T21:56:42.419Z,8.97
2018-05-18T21:59:11.613Z,9.60
2018-05-18T22:01:40.782Z,9.73
2018-05-18T22:04:09.894Z,9.23
2018-05-18T22:06:39.038Z,8.60
2018-05-18T22:09:07.759Z,8.87
2018-05-18T22:11:36.781Z,9.23
2018-05-18T22:14:05.921Z,9.27
2018-05-18T22:16:35.168Z,9.20
2018-05-18T22:19:04.201Z,9.80
2018-05-18T22:21:33.265Z,9.77
2018-05-18T22:24:02.334Z,9.37
2018-05-18T22:26:31.338Z,10.13
2018-05-18T22:29:00.409Z,9.70
2018-05-18T22:31:29.476Z,10.20
2018-05-18T22:33:59.246Z,10.17
2018-05-18T22:36:29.101Z,9.37
2018-05-18T22:38:58.177Z,9.73
2018-05-18T22:41:27.420Z,10.73
2018-05-18T22:43:56.175Z,10.23
2018-05-18T22:46:25.267Z,10.20
2018-05-18T22:48:54.449Z,11.40
2018-05-18T22:51:23.995Z,10.73
2018-05-18T22:53:53.120Z,11.07
2018-05-18T22:56:22.238Z,10.17
2018-05-18T22:58:51.327Z,11.23
2018-05-18T23:01:21.157Z,9.80
2018-05-18T23:03:51.367Z,10.80
2018-05-18T23:06:20.461Z,10.30
2018-05-18T23:08:49.559Z,11.70
2018-05-18T23:11:18.725Z,10.73
2018-05-18T23:13:48.626Z,11.20
2018-05-18T23:16:17.719Z,10.77
2018-05-18T23:18:46.802Z,11.63
2018-05-18T23:21:16.039Z,11.80
2018-05-18T23:23:45.856Z,10.90
2018-05-18T23:26:15.670Z,10.90
2018-05-18T23:28:45.482Z,11.77
2018-05-18T23:31:15.304Z,12.00
2018-05-18T23:33:45.126Z,11.20
2018-05-18T23:36:14.194Z,11.33
2018-05-18T23:38:44.004Z,11.93
2018-05-18T23:41:13.824Z,11.63
2018-05-18T23:43:43.616Z,12.63
2018-05-18T23:46:12.704Z,11.83
2018-05-18T23:48:41.732Z,12.37
2018-05-18T23:51:10.763Z,12.13
2018-05-18T23:53:39.837Z,12.00
2018-05-18T23:56:08.862Z,12.80
2018-05-18T23:58:37.930Z,13.83
